createdAt,value
2018-03-17T00:01:28.458Z,1.20
2018-03-17T00:03:57.900Z,1.20
2018-03-17T00:06:26.224Z,1.20
2018-03-17T00:08:54.544Z,1.10
2018-03-17T00:11:22.928Z,1.20
2018-03-17T00:13:51.256Z,1.40
2018-03-17T00:16:20.482Z,1.60
2018-03-17T00:18:48.896Z,1.70
2018-03-17T00:21:17.253Z,2.00
2018-03-17T00:23:45.576Z,2.20
2018-03-17T00:26:13.954Z,2.30
2018-03-17T00:28:42.288Z,2.50
2018-03-17T00:31:10.617Z,2.70
2018-03-17T00:33:39.021Z,2.70
2018-03-17T00:36:07.409Z,2.40
2018-03-17T00:38:36.488Z,2.30
2018-03-17T00:41:04.829Z,2.30
2018-03-17T00:43:33.150Z,2.20
2018-03-17T00:46:01.488Z,2.40
2018-03-17T00:48:32.739Z,2.40
2018-03-17T00:51:01.464Z,2.50
2018-03-17T00:53:30.801Z,2.70
2018-03-17T00:55:59.112Z,2.60
2018-03-17T00:58:28.095Z,2.40
2018-03-17T01:00:56.436Z,2.20
2018-03-17T01:03:24.761Z,2.10
2018-03-17T01:05:53.172Z,2.00
2018-03-17T01:08:21.484Z,1.90
2018-03-17T01:10:49.824Z,1.70
2018-03-17T01:13:18.532Z,1.70
2018-03-17T01:15:47.603Z,1.50
2018-03-17T01:18:15.951Z,1.50
2018-03-17T01:20:44.463Z,1.40
2018-03-17T01:23:12.788Z,1.40
2018-03-17T01:25:41.117Z,1.40
2018-03-17T01:28:09.556Z,1.30
2018-03-17T01:30:38.163Z,1.40
2018-03-17T01:33:06.798Z,1.30
2018-03-17T01:35:35.773Z,1.30
2018-03-17T01:38:04.100Z,1.40
2018-03-17T01:40:32.416Z,1.60
2018-03-17T01:43:00.757Z,1.60
2018-03-17T01:45:29.696Z,1.60
2018-03-17T01:47:58.136Z,1.60
2018-03-17T01:50:26.460Z,1.60
2018-03-17T01:52:54.781Z,1.60
2018-03-17T01:55:23.138Z,1.70
2018-03-17T01:57:51.448Z,1.80
2018-03-17T02:00:19.764Z,1.90
2018-03-17T02:02:48.159Z,1.90
2018-03-17T02:05:17.681Z,1.80
2018-03-17T02:07:46.016Z,1.60
2018-03-17T02:10:14.384Z,1.50
2018-03-17T02:12:42.714Z,1.50
2018-03-17T02:15:11.068Z,1.50
2018-03-17T02:17:39.435Z,1.40
2018-03-17T02:20:08.948Z,1.60
2018-03-17T02:22:37.268Z,1.70
2018-03-17T02:25:05.620Z,1.50
2018-03-17T02:27:33.933Z,1.30
2018-03-17T02:30:02.265Z,1.20
2018-03-17T02:32:30.625Z,1.20
2018-03-17T02:34:58.948Z,1.30
2018-03-17T02:37:28.243Z,1.40
2018-03-17T02:39:56.741Z,1.30
2018-03-17T02:42:25.510Z,1.60
2018-03-17T02:44:53.860Z,1.80
2018-03-17T02:47:22.220Z,2.00
2018-03-17T02:49:50.557Z,2.00
2018-03-17T02:52:18.933Z,2.20
2018-03-17T02:54:47.271Z,2.10
2018-03-17T02:57:16.384Z,2.30
2018-03-17T02:59:45.133Z,2.30
2018-03-17T03:02:13.461Z,2.20
2018-03-17T03:04:41.800Z,2.40
2018-03-17T03:07:11.257Z,2.30
2018-03-17T03:09:39.584Z,2.30
2018-03-17T03:12:07.915Z,2.20
2018-03-17T03:14:36.417Z,2.30
2018-03-17T03:17:04.736Z,2.30
2018-03-17T03:19:33.084Z,2.40
2018-03-17T03:22:01.639Z,2.70
2018-03-17T03:24:29.953Z,3.00
2018-03-17T03:26:58.019Z,3.00
2018-03-17T03:29:26.752Z,2.90
2018-03-17T03:31:55.096Z,2.90
2018-03-17T03:34:23.432Z,3.00
2018-03-17T03:36:52.080Z,3.10
2018-03-17T03:39:20.723Z,3.40
2018-03-17T03:41:49.104Z,3.40
2018-03-17T03:44:17.437Z,3.70
2018-03-17T03:46:45.758Z,3.80
2018-03-17T03:49:15.100Z,3.60
2018-03-17T03:51:43.440Z,3.70
2018-03-17T03:54:11.797Z,3.80
2018-03-17T03:56:40.203Z,4.00
2018-03-17T03:59:08.589Z,4.00
2018-03-17T04:01:36.923Z,3.90
2018-03-17T04:04:05.260Z,3.80
2018-03-17T04:06:33.758Z,3.80
2018-03-17T04:09:03.556Z,3.60
2018-03-17T04:11:32.651Z,3.60
2018-03-17T04:14:01.741Z,3.50
2018-03-17T04:16:30.165Z,3.50
2018-03-17T04:18:58.533Z,3.20
2018-03-17T04:21:26.876Z,3.10
2018-03-17T04:23:55.218Z,3.20
2018-03-17T04:26:23.533Z,3.30
2018-03-17T04:28:51.933Z,3.10
2018-03-17T04:31:21.088Z,3.10
2018-03-17T04:33:49.495Z,3.20
2018-03-17T04:36:17.821Z,3.40
2018-03-17T04:38:46.240Z,3.70
2018-03-17T04:41:14.551Z,3.60
2018-03-17T04:43:43.404Z,3.50
2018-03-17T04:46:11.759Z,3.50
2018-03-17T04:48:40.090Z,3.60
2018-03-17T04:51:08.432Z,3.60
2018-03-17T04:53:36.880Z,3.60
2018-03-17T04:56:05.238Z,3.60
2018-03-17T04:58:33.569Z,3.60
2018-03-17T05:01:02.072Z,3.60
2018-03-17T05:03:30.401Z,3.60
2018-03-17T05:05:58.732Z,3.60
2018-03-17T05:08:27.125Z,3.60
2018-03-17T05:10:55.473Z,3.60
2018-03-17T05:13:23.792Z,3.60
2018-03-17T05:15:52.163Z,3.70
2018-03-17T05:18:20.480Z,3.70
2018-03-17T05:20:48.804Z,3.80
2018-03-17T05:23:17.209Z,3.80
2018-03-17T05:25:45.527Z,3.90
2018-03-17T05:28:13.848Z,3.90
2018-03-17T05:30:42.218Z,3.80
2018-03-17T05:33:10.541Z,3.90
2018-03-17T05:35:39.181Z,3.80
2018-03-17T05:38:08.323Z,3.70
2018-03-17T05:40:36.660Z,3.70
2018-03-17T05:43:05.561Z,3.60
2018-03-17T05:45:33.883Z,3.60
2018-03-17T05:48:02.202Z,3.70
2018-03-17T05:50:31.320Z,3.80
2018-03-17T05:53:02.031Z,3.80
2018-03-17T05:55:30.372Z,3.70
2018-03-17T05:57:58.696Z,3.60
2018-03-17T06:00:27.087Z,3.60
2018-03-17T06:02:55.970Z,3.60
2018-03-17T06:05:24.304Z,3.80
2018-03-17T06:07:52.664Z,3.80
2018-03-17T06:10:21.005Z,3.90
2018-03-17T06:12:49.338Z,4.00
2018-03-17T06:15:17.698Z,4.10
2018-03-17T06:17:46.064Z,4.10
2018-03-17T06:20:14.660Z,4.30
2018-03-17T06:22:42.976Z,4.50
2018-03-17T06:25:11.307Z,4.20
2018-03-17T06:27:39.652Z,4.30
2018-03-17T06:30:07.978Z,4.20
2018-03-17T06:32:36.320Z,4.20
2018-03-17T06:35:05.404Z,4.00
2018-03-17T06:37:34.504Z,4.10
2018-03-17T06:40:03.588Z,4.10
2018-03-17T06:42:33.234Z,4.00
2018-03-17T06:45:01.549Z,4.00
2018-03-17T06:47:29.865Z,4.00
2018-03-17T06:49:58.342Z,3.70
2018-03-17T06:52:26.653Z,3.90
2018-03-17T06:54:55.016Z,3.80
2018-03-17T06:57:23.340Z,3.90
2018-03-17T06:59:51.682Z,4.00
2018-03-17T07:02:20.372Z,3.90
2018-03-17T07:04:48.697Z,3.90
2018-03-17T07:07:17.034Z,3.80
2018-03-17T07:09:45.405Z,3.90
2018-03-17T07:12:13.718Z,3.90
2018-03-17T07:14:42.040Z,4.00
2018-03-17T07:17:10.409Z,4.20
2018-03-17T07:19:38.738Z,4.20
2018-03-17T07:22:07.610Z,4.10
2018-03-17T07:24:36.009Z,4.10
2018-03-17T07:27:04.333Z,4.10
2018-03-17T07:29:32.721Z,4.20
2018-03-17T07:32:01.138Z,4.30
2018-03-17T07:34:29.449Z,4.30
2018-03-17T07:36:57.775Z,4.20
2018-03-17T07:39:26.281Z,4.00
2018-03-17T07:41:54.615Z,4.00
2018-03-17T07:44:22.936Z,3.90
2018-03-17T07:46:51.324Z,4.00
2018-03-17T07:49:19.640Z,4.10
2018-03-17T07:51:48.732Z,4.10
2018-03-17T07:54:18.479Z,4.10
2018-03-17T07:56:46.806Z,4.10
2018-03-17T07:59:15.133Z,4.00
2018-03-17T08:01:43.476Z,4.20
2018-03-17T08:04:12.557Z,4.30
2018-03-17T08:06:41.681Z,4.30
2018-03-17T08:09:10.008Z,4.30
2018-03-17T08:11:38.571Z,4.00
2018-03-17T08:14:06.892Z,4.00
2018-03-17T08:16:35.972Z,3.80
2018-03-17T08:19:04.323Z,3.80
2018-03-17T08:21:32.651Z,4.00
2018-03-17T08:24:01.015Z,4.20
2018-03-17T08:26:29.356Z,4.20
2018-03-17T08:28:57.724Z,4.30
2018-03-17T08:31:26.097Z,4.30
2018-03-17T08:33:54.414Z,4.40
2018-03-17T08:36:23.241Z,4.10
2018-03-17T08:38:51.640Z,4.30
2018-03-17T08:41:19.965Z,4.50
2018-03-17T08:43:50.508Z,4.50
2018-03-17T08:46:19.652Z,4.80
2018-03-17T08:48:48.705Z,4.80
2018-03-17T08:51:17.782Z,4.50
2018-03-17T08:53:46.269Z,4.50
2018-03-17T08:56:14.649Z,4.40
2018-03-17T08:58:43.389Z,4.40
2018-03-17T09:01:11.734Z,4.40
2018-03-17T09:03:40.133Z,4.50
2018-03-17T09:06:08.453Z,4.60
2018-03-17T09:08:36.818Z,4.30
2018-03-17T09:11:05.160Z,4.40
2018-03-17T09:13:33.498Z,4.60
2018-03-17T09:16:01.876Z,4.40
2018-03-17T09:18:30.211Z,3.90
2018-03-17T09:20:58.533Z,4.10
2018-03-17T09:23:26.873Z,4.00
2018-03-17T09:25:55.189Z,4.10
2018-03-17T09:28:23.550Z,4.00
2018-03-17T09:30:51.975Z,3.70
2018-03-17T09:33:20.282Z,3.80
2018-03-17T09:35:49.396Z,4.10
2018-03-17T09:38:18.133Z,4.20
2018-03-17T09:40:47.426Z,4.30
2018-03-17T09:43:15.820Z,4.20
2018-03-17T09:45:44.548Z,4.30
2018-03-17T09:48:13.702Z,4.40
2018-03-17T09:50:42.828Z,4.60
2018-03-17T09:53:11.145Z,4.60
2018-03-17T09:55:41.173Z,4.30
2018-03-17T09:58:09.580Z,4.50
2018-03-17T10:00:37.897Z,4.50
2018-03-17T10:03:06.212Z,4.70
2018-03-17T10:05:35.677Z,4.30
2018-03-17T10:08:04.008Z,4.30
2018-03-17T10:10:33.516Z,4.30
2018-03-17T10:13:01.935Z,4.30
2018-03-17T10:15:30.312Z,3.90
2018-03-17T10:17:58.656Z,3.50
2018-03-17T10:20:27.657Z,3.80
2018-03-17T10:22:56.271Z,4.00
2018-03-17T10:25:24.611Z,4.00
2018-03-17T10:27:53.012Z,4.20
2018-03-17T10:30:22.092Z,4.20
2018-03-17T10:32:50.413Z,4.40
2018-03-17T10:35:18.994Z,4.70
2018-03-17T10:37:47.388Z,4.50
2018-03-17T10:40:15.692Z,4.70
2018-03-17T10:42:45.728Z,4.30
2018-03-17T10:45:14.887Z,4.30
2018-03-17T10:47:44.155Z,4.60
2018-03-17T10:50:13.053Z,4.40
2018-03-17T10:52:41.365Z,4.70
2018-03-17T10:55:09.760Z,4.30
2018-03-17T10:57:38.027Z,4.20
2018-03-17T11:00:06.258Z,4.30
2018-03-17T11:02:39.966Z,4.20
2018-03-17T11:05:08.593Z,3.70
2018-03-17T11:07:36.817Z,3.50
2018-03-17T11:10:05.145Z,3.70
2018-03-17T11:12:33.461Z,3.80
2018-03-17T11:15:02.810Z,3.80
2018-03-17T11:17:32.596Z,4.10
2018-03-17T11:20:00.925Z,4.10
2018-03-17T11:22:29.801Z,3.90
2018-03-17T11:25:03.882Z,4.00
2018-03-17T11:27:32.223Z,3.90
2018-03-17T11:30:06.609Z,3.90
2018-03-17T11:32:40.548Z,3.70
2018-03-17T11:35:09.492Z,3.50
2018-03-17T11:37:38.465Z,3.80
2018-03-17T11:40:07.680Z,3.40
2018-03-17T11:42:36.727Z,3.50
2018-03-17T11:45:05.100Z,3.60
2018-03-17T11:47:33.544Z,3.80
2018-03-17T11:50:01.869Z,3.80
2018-03-17T11:52:30.408Z,3.80
2018-03-17T11:54:58.725Z,3.80
2018-03-17T11:57:27.809Z,3.50
2018-03-17T11:59:56.166Z,3.40
2018-03-17T12:02:24.905Z,3.50
2018-03-17T12:04:53.218Z,3.50
2018-03-17T12:07:22.408Z,3.40
2018-03-17T12:09:50.722Z,3.40
2018-03-17T12:12:19.809Z,3.50
2018-03-17T12:14:48.933Z,3.60
2018-03-17T12:17:17.261Z,3.60
2018-03-17T12:19:47.360Z,4.10
2018-03-17T12:22:15.726Z,4.10
2018-03-17T12:24:44.206Z,4.00
2018-03-17T12:27:12.513Z,4.00
2018-03-17T12:29:41.680Z,4.20
2018-03-17T12:32:10.533Z,4.20
2018-03-17T12:34:39.439Z,4.10
2018-03-17T12:37:07.777Z,4.20
2018-03-17T12:39:36.272Z,4.30
2018-03-17T12:42:04.744Z,4.10
2018-03-17T12:44:33.453Z,4.00
2018-03-17T12:47:02.324Z,4.10
2018-03-17T12:49:31.332Z,4.10
2018-03-17T12:52:00.412Z,4.10
2018-03-17T12:54:29.402Z,4.10
2018-03-17T12:56:57.717Z,4.00
2018-03-17T12:59:26.043Z,3.80
2018-03-17T13:01:55.121Z,4.00
2018-03-17T13:04:23.437Z,4.00
2018-03-17T13:06:51.876Z,4.00
2018-03-17T13:09:20.705Z,3.90
2018-03-17T13:11:49.021Z,3.90
2018-03-17T13:14:17.393Z,4.00
2018-03-17T13:16:45.701Z,3.70
2018-03-17T13:19:31.866Z,3.60
2018-03-17T13:22:00.827Z,3.50
2018-03-17T13:24:29.152Z,3.60
2018-03-17T13:27:15.088Z,3.40
2018-03-17T13:29:43.404Z,3.70
2018-03-17T13:32:29.324Z,3.60
2018-03-17T13:34:57.653Z,3.60
2018-03-17T13:37:38.103Z,3.60
2018-03-17T13:53:54.132Z,3.40
2018-03-17T13:56:22.473Z,3.30
2018-03-17T13:58:50.802Z,3.50
2018-03-17T14:01:19.180Z,3.40
2018-03-17T14:03:47.493Z,3.40
2018-03-17T14:06:15.802Z,3.40
2018-03-17T14:08:44.212Z,3.50
2018-03-17T14:11:12.516Z,3.30
2018-03-17T14:13:40.820Z,3.40
2018-03-17T14:16:09.196Z,3.40
2018-03-17T14:18:37.516Z,3.20
2018-03-17T14:21:05.834Z,3.20
2018-03-17T14:23:34.588Z,3.20
2018-03-17T14:26:03.034Z,3.30
2018-03-17T14:28:31.970Z,3.40
2018-03-17T14:31:00.639Z,3.20
2018-03-17T14:33:28.945Z,3.10
2018-03-17T14:35:58.800Z,2.90
2018-03-17T14:38:27.568Z,2.80
2018-03-17T14:40:56.855Z,2.70
2018-03-17T14:43:29.021Z,2.70
2018-03-17T14:45:58.004Z,2.70
2018-03-17T14:48:26.312Z,2.80
2018-03-17T14:50:54.700Z,2.70
2018-03-17T14:53:23.065Z,2.70
2018-03-17T14:55:51.489Z,2.60
2018-03-17T14:58:20.770Z,2.70
2018-03-17T15:00:49.900Z,2.80
2018-03-17T15:03:18.405Z,2.80
2018-03-17T15:05:47.371Z,2.90
2018-03-17T15:08:15.689Z,2.80
2018-03-17T15:10:44.008Z,2.80
2018-03-17T15:13:12.392Z,2.80
2018-03-17T15:15:40.708Z,3.00
2018-03-17T15:18:09.016Z,2.80
2018-03-17T15:20:38.383Z,2.90
2018-03-17T15:23:07.209Z,2.90
2018-03-17T15:25:35.585Z,2.80
2018-03-17T15:28:03.960Z,2.80
2018-03-17T15:30:32.268Z,2.70
2018-03-17T15:33:00.640Z,2.40
2018-03-17T15:35:30.429Z,2.40
2018-03-17T15:37:58.679Z,2.30
2018-03-17T15:40:26.997Z,2.30
2018-03-17T15:42:55.428Z,2.20
2018-03-17T15:45:24.389Z,2.20
2018-03-17T15:47:52.709Z,2.30
2018-03-17T15:50:21.501Z,2.40
2018-03-17T15:52:50.042Z,2.20
2018-03-17T15:55:18.912Z,2.10
2018-03-17T15:57:47.240Z,2.10
2018-03-17T16:00:16.403Z,2.20
2018-03-17T16:02:44.082Z,2.30
2018-03-17T16:05:12.701Z,2.30
2018-03-17T16:07:41.141Z,2.40
2018-03-17T16:10:10.143Z,2.40
2018-03-17T16:12:39.224Z,2.30
2018-03-17T16:15:08.533Z,2.20
2018-03-17T16:17:37.581Z,2.20
2018-03-17T16:20:06.678Z,2.00
2018-03-17T16:22:35.556Z,2.00
2018-03-17T16:25:03.883Z,1.90
2018-03-17T16:27:32.196Z,1.90
2018-03-17T16:30:00.566Z,2.10
2018-03-17T16:32:28.973Z,2.00
2018-03-17T16:34:58.056Z,1.90
2018-03-17T16:37:26.805Z,1.90
2018-03-17T16:39:55.132Z,1.90
2018-03-17T16:42:23.444Z,1.90
2018-03-17T16:44:51.804Z,2.00
2018-03-17T16:47:23.109Z,2.00
2018-03-17T16:49:51.469Z,2.10
2018-03-17T16:52:20.109Z,2.10
2018-03-17T16:54:48.429Z,2.00
2018-03-17T16:57:16.798Z,2.00
2018-03-17T16:59:45.112Z,1.80
2018-03-17T17:02:13.434Z,1.90
2018-03-17T17:04:42.574Z,1.90
2018-03-17T17:07:10.891Z,1.80
2018-03-17T17:09:39.229Z,1.80
2018-03-17T17:12:07.618Z,1.60
2018-03-17T17:14:35.943Z,1.70
2018-03-17T17:17:04.268Z,1.70
2018-03-17T17:19:32.992Z,1.80
2018-03-17T17:22:02.084Z,1.60
2018-03-17T17:24:31.354Z,1.60
2018-03-17T17:27:00.080Z,1.60
2018-03-17T17:29:29.064Z,1.50
2018-03-17T17:31:57.379Z,1.50
2018-03-17T17:34:26.144Z,1.50
2018-03-17T17:36:55.530Z,1.40
2018-03-17T17:39:23.840Z,1.50
2018-03-17T17:41:52.168Z,1.60
2018-03-17T17:44:20.537Z,1.60
2018-03-17T17:46:49.329Z,1.60
2018-03-17T17:49:17.649Z,1.50
2018-03-17T17:51:45.992Z,1.50
2018-03-17T17:54:14.340Z,1.40
2018-03-17T17:56:42.676Z,1.40
2018-03-17T17:59:11.063Z,1.30
2018-03-17T18:01:39.478Z,1.30
2018-03-17T18:04:08.532Z,1.20
2018-03-17T18:06:38.256Z,1.20
2018-03-17T18:09:06.588Z,1.10
2018-03-17T18:11:34.931Z,1.20
2018-03-17T18:14:03.569Z,1.20
2018-03-17T18:16:32.061Z,1.20
2018-03-17T18:19:00.366Z,1.20
2018-03-17T18:21:29.425Z,1.10
2018-03-17T18:23:57.769Z,1.00
2018-03-17T18:26:26.797Z,1.10
2018-03-17T18:28:55.750Z,1.10
2018-03-17T18:31:24.035Z,1.10
2018-03-17T18:33:52.564Z,1.10
2018-03-17T18:36:20.936Z,1.00
2018-03-17T18:38:49.284Z,1.10
2018-03-17T18:41:17.957Z,1.10
2018-03-17T18:43:46.268Z,1.00
2018-03-17T18:46:14.637Z,1.00
2018-03-17T18:48:42.997Z,1.00
2018-03-17T18:51:11.317Z,0.90
2018-03-17T18:53:40.760Z,0.90
2018-03-17T18:56:09.121Z,0.90
2018-03-17T18:58:37.438Z,0.90
2018-03-17T19:01:05.805Z,0.80
2018-03-17T19:03:34.617Z,0.70
2018-03-17T19:06:03.703Z,0.70
2018-03-17T19:08:32.056Z,0.70
2018-03-17T19:11:00.405Z,0.60
2018-03-17T19:13:28.765Z,0.60
2018-03-17T19:15:57.156Z,0.50
2018-03-17T19:18:25.701Z,0.60
2018-03-17T19:20:54.621Z,0.60
2018-03-17T19:23:23.048Z,0.60
2018-03-17T19:25:51.375Z,0.60
2018-03-17T19:28:20.549Z,0.50
2018-03-17T19:30:50.299Z,0.50
2018-03-17T19:33:18.626Z,0.50
2018-03-17T19:35:47.548Z,0.50
2018-03-17T19:38:16.175Z,0.40
2018-03-17T19:40:45.820Z,0.20
2018-03-17T19:43:14.140Z,0.20
2018-03-17T19:45:42.520Z,0.10
2018-03-17T19:48:11.291Z,0.10
2018-03-17T19:50:40.063Z,0.10
2018-03-17T19:53:10.353Z,0.10
2018-03-17T19:55:38.863Z,0.10
2018-03-17T19:58:07.648Z,0.20
2018-03-17T20:00:36.197Z,0.10
2018-03-17T20:03:05.208Z,-0.10
2018-03-17T20:05:34.740Z,-0.20
2018-03-17T20:08:04.030Z,-0.20
2018-03-17T20:10:32.456Z,-0.10
2018-03-17T20:13:00.786Z,-0.10
2018-03-17T20:15:29.060Z,-0.10
2018-03-17T20:17:57.419Z,-0.10
2018-03-17T20:20:28.930Z,-0.10
2018-03-17T20:22:57.347Z,-0.10
2018-03-17T20:25:25.957Z,-0.20
2018-03-17T20:27:54.350Z,-0.10
2018-03-17T20:30:22.708Z,-0.10
2018-03-17T20:32:51.041Z,-0.20
2018-03-17T20:35:19.401Z,-0.10
2018-03-17T20:37:48.472Z,-0.20
2018-03-17T20:40:17.396Z,-0.10
2018-03-17T20:42:47.340Z,-0.20
2018-03-17T20:45:16.664Z,-0.20
2018-03-17T20:47:45.012Z,-0.30
2018-03-17T20:50:13.452Z,-0.20
2018-03-17T20:52:42.803Z,-0.10
2018-03-17T20:55:12.056Z,-0.20
2018-03-17T20:57:40.484Z,-0.40
2018-03-17T21:00:09.593Z,-0.40
2018-03-17T21:02:38.537Z,-0.40
2018-03-17T21:05:06.755Z,-0.30
2018-03-17T21:07:35.277Z,-0.50
2018-03-17T21:10:02.902Z,-0.50
2018-03-17T21:12:31.812Z,-0.60
2018-03-17T21:15:00.149Z,-0.70
2018-03-17T21:17:28.592Z,-0.70
2018-03-17T21:19:56.881Z,-0.70
2018-03-17T21:22:25.228Z,-0.70
2018-03-17T21:24:53.833Z,-0.80
2018-03-17T21:27:22.164Z,-0.80
2018-03-17T21:29:50.527Z,-0.90
2018-03-17T21:32:18.857Z,-1.00
2018-03-17T21:34:47.185Z,-1.00
2018-03-17T21:37:16.858Z,-1.10
2018-03-17T21:39:45.048Z,-1.10
2018-03-17T21:42:14.121Z,-1.10
2018-03-17T21:44:43.349Z,-1.30
2018-03-17T21:47:12.453Z,-1.40
2018-03-17T21:49:43.203Z,-1.30
2018-03-17T21:52:12.965Z,-1.30
2018-03-17T21:54:41.360Z,-1.30
2018-03-17T21:57:09.653Z,-1.20
2018-03-17T21:59:37.988Z,-1.20
2018-03-17T22:02:08.523Z,-1.20
2018-03-17T22:04:36.808Z,-1.20
2018-03-17T22:07:06.004Z,-1.20
2018-03-17T22:09:34.344Z,-1.30
2018-03-17T22:12:02.867Z,-1.40
2018-03-17T22:14:32.613Z,-1.50
2018-03-17T22:17:02.307Z,-1.50
2018-03-17T22:19:31.225Z,-1.40
2018-03-17T22:22:00.584Z,-1.50
2018-03-17T22:24:28.909Z,-1.40
2018-03-17T22:27:00.449Z,-1.50
2018-03-17T22:29:29.312Z,-1.60
2018-03-17T22:31:58.508Z,-1.70
2018-03-17T22:34:26.821Z,-1.70
2018-03-17T22:36:55.373Z,-1.70
2018-03-17T22:39:24.244Z,-1.70
2018-03-17T22:41:52.569Z,-1.70
2018-03-17T22:44:20.974Z,-1.80
2018-03-17T22:46:49.657Z,-1.80
2018-03-17T22:49:18.090Z,-1.80
2018-03-17T22:51:46.412Z,-1.70
2018-03-17T22:54:15.423Z,-1.80
2018-03-17T22:56:44.643Z,-1.70
2018-03-17T22:59:12.972Z,-1.80
2018-03-17T23:01:41.789Z,-1.90
2018-03-17T23:04:11.101Z,-1.90
2018-03-17T23:06:39.537Z,-1.90
2018-03-17T23:09:07.860Z,-2.00
2018-03-17T23:11:36.771Z,-2.00
2018-03-17T23:14:05.095Z,-2.00
2018-03-17T23:16:33.490Z,-2.10
2018-03-17T23:19:01.837Z,-2.10
2018-03-17T23:21:30.181Z,-2.00
2018-03-17T23:23:59.296Z,-2.10
2018-03-17T23:26:27.618Z,-2.10
2018-03-17T23:28:55.999Z,-2.10
2018-03-17T23:31:24.813Z,-2.10
2018-03-17T23:33:53.448Z,-2.10
2018-03-17T23:36:22.029Z,-2.00
2018-03-17T23:38:50.229Z,-2.00
2018-03-17T23:41:18.554Z,-2.00
2018-03-17T23:43:46.909Z,-1.90
2018-03-17T23:46:16.057Z,-2.00
2018-03-17T23:48:44.418Z,-2.10
2018-03-17T23:51:12.759Z,-2.00
2018-03-17T23:53:41.124Z,-2.10
2018-03-17T23:56:09.480Z,-2.10
2018-03-17T23:58:38.020Z,-2.00
